sensor_id;sensor_type;location;lat;lon;timestamp;pressure;altitude;pressure_sealevel;temperature;humidity
11912;BME280;6016;41.928;25.556;2022-09-03T00:01:17;98803.50;;;26.36;61.87
11912;BME280;6016;41.928;25.556;2022-09-03T00:03:46;98804.16;;;26.43;61.29
11912;BME280;6016;41.928;25.556;2022-09-03T00:06:21;98776.84;;;26.22;61.96
11912;BME280;6016;41.928;25.556;2022-09-03T00:08:53;98767.25;;;26.15;61.97
11912;BME280;6016;41.928;25.556;2022-09-03T00:11:28;98752.63;;;26.10;61.56
11912;BME280;6016;41.928;25.556;2022-09-03T00:13:59;98785.09;;;26.33;61.79
11912;BME280;6016;41.928;25.556;2022-09-03T00:16:39;98810.94;;;26.46;61.25
11912;BME280;6016;41.928;25.556;2022-09-03T00:19:07;98787.16;;;26.25;61.63
11912;BME280;6016;41.928;25.556;2022-09-03T00:21:38;98796.25;;;26.36;61.21
11912;BME280;6016;41.928;25.556;2022-09-03T00:24:10;98808.53;;;26.49;61.40
11912;BME280;6016;41.928;25.556;2022-09-03T00:26:42;98750.41;;;26.07;61.69
11912;BME280;6016;41.928;25.556;2022-09-03T00:29:14;98814.09;;;26.37;61.51
11912;BME280;6016;41.928;25.556;2022-09-03T00:31:45;98776.53;;;26.19;61.82
11912;BME280;6016;41.928;25.556;2022-09-03T00:34:17;98810.56;;;26.37;61.25
11912;BME280;6016;41.928;25.556;2022-09-03T00:36:47;98810.63;;;26.42;61.37
11912;BME280;6016;41.928;25.556;2022-09-03T00:39:16;98806.03;;;26.43;60.96
11912;BME280;6016;41.928;25.556;2022-09-03T00:41:53;98791.25;;;26.28;61.19
11912;BME280;6016;41.928;25.556;2022-09-03T00:44:45;98768.56;;;26.12;61.33
11912;BME280;6016;41.928;25.556;2022-09-03T00:47:21;98758.63;;;25.95;61.07
11912;BME280;6016;41.928;25.556;2022-09-03T00:49:59;98797.59;;;26.39;61.15
11912;BME280;6016;41.928;25.556;2022-09-03T00:52:40;98801.06;;;26.34;60.87
11912;BME280;6016;41.928;25.556;2022-09-03T00:55:12;98809.34;;;26.27;60.99
11912;BME280;6016;41.928;25.556;2022-09-03T00:57:52;98785.63;;;26.12;60.49
11912;BME280;6016;41.928;25.556;2022-09-03T01:00:24;98766.75;;;25.95;60.93
11912;BME280;6016;41.928;25.556;2022-09-03T01:03:03;98772.47;;;25.99;60.69
11912;BME280;6016;41.928;25.556;2022-09-03T01:05:44;98791.31;;;26.16;60.53
11912;BME280;6016;41.928;25.556;2022-09-03T01:08:19;98805.13;;;26.15;61.01
11912;BME280;6016;41.928;25.556;2022-09-03T01:11:03;98801.34;;;26.16;61.09
11912;BME280;6016;41.928;25.556;2022-09-03T01:13:38;98782.41;;;26.16;61.00
11912;BME280;6016;41.928;25.556;2022-09-03T01:16:12;98788.97;;;26.20;60.75
11912;BME280;6016;41.928;25.556;2022-09-03T01:18:50;98743.09;;;25.86;60.97
11912;BME280;6016;41.928;25.556;2022-09-03T01:21:50;98787.34;;;26.19;60.68
11912;BME280;6016;41.928;25.556;2022-09-03T01:24:52;98799.19;;;26.18;61.14
11912;BME280;6016;41.928;25.556;2022-09-03T01:27:36;98784.19;;;26.05;60.84
11912;BME280;6016;41.928;25.556;2022-09-03T01:30:11;98746.00;;;25.79;60.76
11912;BME280;6016;41.928;25.556;2022-09-03T01:32:49;98797.00;;;26.15;61.08
11912;BME280;6016;41.928;25.556;2022-09-03T01:35:24;98792.28;;;26.05;61.58
11912;BME280;6016;41.928;25.556;2022-09-03T01:38:00;98762.13;;;25.96;61.21
11912;BME280;6016;41.928;25.556;2022-09-03T01:40:33;98789.06;;;26.08;61.13
11912;BME280;6016;41.928;25.556;2022-09-03T01:43:18;98793.41;;;26.09;61.18
11912;BME280;6016;41.928;25.556;2022-09-03T01:45:58;98810.00;;;26.18;61.55
11912;BME280;6016;41.928;25.556;2022-09-03T01:48:34;98805.47;;;26.18;61.15
11912;BME280;6016;41.928;25.556;2022-09-03T01:51:10;98805.47;;;26.18;61.41
11912;BME280;6016;41.928;25.556;2022-09-03T01:56:59;98789.81;;;26.20;61.25
11912;BME280;6016;41.928;25.556;2022-09-03T01:59:35;98768.06;;;26.15;60.92
11912;BME280;6016;41.928;25.556;2022-09-03T02:02:09;98753.66;;;26.09;61.05
11912;BME280;6016;41.928;25.556;2022-09-03T02:04:55;98797.59;;;26.39;61.11
11912;BME280;6016;41.928;25.556;2022-09-03T02:07:25;98790.41;;;26.27;61.44
11912;BME280;6016;41.928;25.556;2022-09-03T02:09:58;98806.22;;;26.36;60.91
11912;BME280;6016;41.928;25.556;2022-09-03T02:12:26;98813.50;;;26.35;61.34
11912;BME280;6016;41.928;25.556;2022-09-03T02:14:58;98796.50;;;26.18;61.20
11912;BME280;6016;41.928;25.556;2022-09-03T02:17:29;98771.78;;;26.09;61.23
11912;BME280;6016;41.928;25.556;2022-09-03T02:19:57;98788.88;;;26.15;61.33
11912;BME280;6016;41.928;25.556;2022-09-03T02:22:24;98788.75;;;26.21;61.26
11912;BME280;6016;41.928;25.556;2022-09-03T02:24:52;98820.31;;;26.38;61.07
11912;BME280;6016;41.928;25.556;2022-09-03T02:27:19;98832.72;;;26.34;61.12
11912;BME280;6016;41.928;25.556;2022-09-03T02:29:46;98789.06;;;26.08;61.53
11912;BME280;6016;41.928;25.556;2022-09-03T02:32:13;98820.28;;;25.98;61.59
11912;BME280;6016;41.928;25.556;2022-09-03T02:34:42;98821.50;;;26.25;61.63
11912;BME280;6016;41.928;25.556;2022-09-03T02:37:13;98798.25;;;26.07;61.31
11912;BME280;6016;41.928;25.556;2022-09-03T02:39:40;98816.28;;;26.18;61.87
11912;BME280;6016;41.928;25.556;2022-09-03T02:42:08;98808.31;;;26.11;61.41
11912;BME280;6016;41.928;25.556;2022-09-03T02:44:39;98807.44;;;26.06;61.86
11912;BME280;6016;41.928;25.556;2022-09-03T02:47:07;98807.91;;;26.03;61.84
11912;BME280;6016;41.928;25.556;2022-09-03T02:49:34;98810.44;;;26.09;61.51
11912;BME280;6016;41.928;25.556;2022-09-03T02:52:05;98817.81;;;26.14;61.70
11912;BME280;6016;41.928;25.556;2022-09-03T02:54:34;98816.44;;;26.11;61.66
11912;BME280;6016;41.928;25.556;2022-09-03T02:57:05;98823.38;;;26.07;61.47
11912;BME280;6016;41.928;25.556;2022-09-03T02:59:32;98782.41;;;25.76;61.58
11912;BME280;6016;41.928;25.556;2022-09-03T03:01:59;98831.03;;;25.93;62.12
11912;BME280;6016;41.928;25.556;2022-09-03T03:04:26;98832.91;;;25.93;62.22
11912;BME280;6016;41.928;25.556;2022-09-03T03:06:54;98395.94;;;23.17;62.38
11912;BME280;6016;41.928;25.556;2022-09-03T03:09:22;98824.56;;;25.94;61.81
11912;BME280;6016;41.928;25.556;2022-09-03T03:11:49;98806.47;;;25.78;62.05
11912;BME280;6016;41.928;25.556;2022-09-03T03:14:18;98793.41;;;25.69;62.10
11912;BME280;6016;41.928;25.556;2022-09-03T03:16:45;98815.47;;;25.83;61.99
11912;BME280;6016;41.928;25.556;2022-09-03T03:19:12;98786.94;;;25.70;61.87
11912;BME280;6016;41.928;25.556;2022-09-03T03:21:39;98785.63;;;25.73;62.19
11912;BME280;6016;41.928;25.556;2022-09-03T03:24:07;98801.72;;;25.85;62.14
11912;BME280;6016;41.928;25.556;2022-09-03T03:26:35;98752.31;;;25.50;61.66
11912;BME280;6016;41.928;25.556;2022-09-03T03:29:03;98826.13;;;25.90;62.58
11912;BME280;6016;41.928;25.556;2022-09-03T03:31:30;98824.66;;;25.82;62.49
11912;BME280;6016;41.928;25.556;2022-09-03T03:33:59;98824.66;;;25.82;62.31
11912;BME280;6016;41.928;25.556;2022-09-03T03:36:28;98819.56;;;25.86;62.35
11912;BME280;6016;41.928;25.556;2022-09-03T03:38:56;98823.69;;;25.89;61.93
11912;BME280;6016;41.928;25.556;2022-09-03T03:41:27;98829.88;;;25.89;62.07
11912;BME280;6016;41.928;25.556;2022-09-03T03:43:58;98823.75;;;25.94;61.82
11912;BME280;6016;41.928;25.556;2022-09-03T03:46:29;98824.25;;;25.91;62.06
11912;BME280;6016;41.928;25.556;2022-09-03T03:48:57;98756.69;;;25.39;62.13
11912;BME280;6016;41.928;25.556;2022-09-03T03:51:26;98821.47;;;25.86;61.97
11912;BME280;6016;41.928;25.556;2022-09-03T03:53:54;98829.00;;;25.83;62.24
11912;BME280;6016;41.928;25.556;2022-09-03T03:56:22;98772.09;;;25.39;61.93
11912;BME280;6016;41.928;25.556;2022-09-03T03:58:49;98801.41;;;25.64;62.11
11912;BME280;6016;41.928;25.556;2022-09-03T04:01:19;98629.47;;;24.50;62.21
11912;BME280;6016;41.928;25.556;2022-09-03T04:03:47;98831.06;;;25.76;62.62
11912;BME280;6016;41.928;25.556;2022-09-03T04:06:16;98828.75;;;25.68;62.68
11912;BME280;6016;41.928;25.556;2022-09-03T04:08:45;98830.06;;;25.65;62.86
11912;BME280;6016;41.928;25.556;2022-09-03T04:11:13;98776.03;;;25.31;62.37
11912;BME280;6016;41.928;25.556;2022-09-03T04:13:42;98829.03;;;25.66;62.76
11912;BME280;6016;41.928;25.556;2022-09-03T04:16:11;98778.56;;;25.38;62.54
11912;BME280;6016;41.928;25.556;2022-09-03T04:18:39;98835.28;;;25.72;62.29
11912;BME280;6016;41.928;25.556;2022-09-03T04:21:08;98826.31;;;25.49;62.86
11912;BME280;6016;41.928;25.556;2022-09-03T04:23:37;98796.22;;;25.28;63.05
11912;BME280;6016;41.928;25.556;2022-09-03T04:26:05;98810.13;;;25.37;63.05
11912;BME280;6016;41.928;25.556;2022-09-03T04:28:33;98834.00;;;25.58;62.62
11912;BME280;6016;41.928;25.556;2022-09-03T04:31:01;98807.59;;;25.31;62.61
11912;BME280;6016;41.928;25.556;2022-09-03T04:33:28;98815.97;;;25.29;63.13
11912;BME280;6016;41.928;25.556;2022-09-03T04:36:03;98804.41;;;25.17;62.66
11912;BME280;6016;41.928;25.556;2022-09-03T04:38:31;98834.59;;;25.31;63.05
11912;BME280;6016;41.928;25.556;2022-09-03T04:40:58;98810.63;;;25.17;63.05
11912;BME280;6016;41.928;25.556;2022-09-03T04:43:25;98719.38;;;24.56;62.49
11912;BME280;6016;41.928;25.556;2022-09-03T04:45:55;98822.09;;;25.41;62.05
11912;BME280;6016;41.928;25.556;2022-09-03T04:48:23;98677.34;;;24.43;62.47
11912;BME280;6016;41.928;25.556;2022-09-03T04:50:50;98858.97;;;25.65;61.93
11912;BME280;6016;41.928;25.556;2022-09-03T04:53:18;98842.94;;;25.58;62.07
11912;BME280;6016;41.928;25.556;2022-09-03T04:55:45;98859.22;;;25.63;62.28
11912;BME280;6016;41.928;25.556;2022-09-03T04:58:12;98867.56;;;25.62;62.29
11912;BME280;6016;41.928;25.556;2022-09-03T05:00:39;98823.91;;;25.36;62.48
11912;BME280;6016;41.928;25.556;2022-09-03T05:03:06;98592.81;;;23.91;61.88
11912;BME280;6016;41.928;25.556;2022-09-03T05:05:33;98653.53;;;24.23;62.27
11912;BME280;6016;41.928;25.556;2022-09-03T05:08:01;98859.03;;;25.53;62.67
11912;BME280;6016;41.928;25.556;2022-09-03T05:10:30;98737.97;;;24.69;61.90
11912;BME280;6016;41.928;25.556;2022-09-03T05:12:58;98873.06;;;25.67;62.09
11912;BME280;6016;41.928;25.556;2022-09-03T05:15:25;98870.00;;;25.63;62.16
11912;BME280;6016;41.928;25.556;2022-09-03T05:17:55;98873.78;;;25.62;62.43
11912;BME280;6016;41.928;25.556;2022-09-03T05:20:22;98874.63;;;25.63;62.48
11912;BME280;6016;41.928;25.556;2022-09-03T05:22:50;98876.75;;;25.61;62.40
11912;BME280;6016;41.928;25.556;2022-09-03T05:25:17;98757.03;;;24.92;61.91
11912;BME280;6016;41.928;25.556;2022-09-03T05:27:45;98691.75;;;24.49;61.87
11912;BME280;6016;41.928;25.556;2022-09-03T05:30:12;98819.63;;;25.23;62.04
11912;BME280;6016;41.928;25.556;2022-09-03T05:32:42;98795.22;;;25.00;62.05
11912;BME280;6016;41.928;25.556;2022-09-03T05:35:09;98886.50;;;25.62;61.87
11912;BME280;6016;41.928;25.556;2022-09-03T05:37:36;98881.81;;;25.57;62.04
11912;BME280;6016;41.928;25.556;2022-09-03T05:40:05;98810.13;;;25.03;62.25
11912;BME280;6016;41.928;25.556;2022-09-03T05:42:34;98896.22;;;25.63;62.05
11912;BME280;6016;41.928;25.556;2022-09-03T05:45:05;98771.94;;;24.82;62.02
11912;BME280;6016;41.928;25.556;2022-09-03T05:47:34;98899.66;;;25.58;62.36
11912;BME280;6016;41.928;25.556;2022-09-03T05:50:01;98657.47;;;24.03;61.73
11912;BME280;6016;41.928;25.556;2022-09-03T05:52:28;98906.53;;;25.66;61.72
11912;BME280;6016;41.928;25.556;2022-09-03T05:54:55;98868.41;;;25.33;61.74
11912;BME280;6016;41.928;25.556;2022-09-03T05:57:22;98917.84;;;25.63;61.70
11912;BME280;6016;41.928;25.556;2022-09-03T05:59:49;98818.53;;;24.78;62.04
11912;BME280;6016;41.928;25.556;2022-09-03T06:02:17;98910.78;;;25.33;61.96
11912;BME280;6016;41.928;25.556;2022-09-03T06:04:44;98875.41;;;25.17;61.83
11912;BME280;6016;41.928;25.556;2022-09-03T06:07:11;98911.91;;;25.49;61.74
11912;BME280;6016;41.928;25.556;2022-09-03T06:09:38;98889.03;;;25.39;61.97
11912;BME280;6016;41.928;25.556;2022-09-03T06:12:06;98909.44;;;25.47;61.70
11912;BME280;6016;41.928;25.556;2022-09-03T06:14:33;98884.03;;;25.31;61.32
11912;BME280;6016;41.928;25.556;2022-09-03T06:17:01;98867.03;;;24.90;61.91
11912;BME280;6016;41.928;25.556;2022-09-03T06:19:30;98904.56;;;25.32;62.29
11912;BME280;6016;41.928;25.556;2022-09-03T06:21:57;98860.34;;;25.04;61.87
11912;BME280;6016;41.928;25.556;2022-09-03T06:24:24;98869.66;;;25.13;61.57
11912;BME280;6016;41.928;25.556;2022-09-03T06:26:54;98906.06;;;25.11;61.75
11912;BME280;6016;41.928;25.556;2022-09-03T06:29:21;98917.72;;;25.28;62.02
11912;BME280;6016;41.928;25.556;2022-09-03T06:31:50;98878.75;;;24.95;62.51
11912;BME280;6016;41.928;25.556;2022-09-03T06:34:20;98935.75;;;25.40;61.69
11912;BME280;6016;41.928;25.556;2022-09-03T06:36:54;98920.78;;;25.32;62.39
11912;BME280;6016;41.928;25.556;2022-09-03T06:39:23;98876.13;;;25.12;61.75
11912;BME280;6016;41.928;25.556;2022-09-03T06:41:51;98899.19;;;25.32;61.94
11912;BME280;6016;41.928;25.556;2022-09-03T06:44:19;98942.38;;;25.61;61.55
11912;BME280;6016;41.928;25.556;2022-09-03T06:46:46;98937.66;;;25.68;61.42
11912;BME280;6016;41.928;25.556;2022-09-03T06:49:16;98945.91;;;25.62;61.12
11912;BME280;6016;41.928;25.556;2022-09-03T06:51:46;98935.84;;;25.45;61.12
11912;BME280;6016;41.928;25.556;2022-09-03T06:54:14;98956.47;;;25.63;61.13
11912;BME280;6016;41.928;25.556;2022-09-03T06:56:41;98946.97;;;25.78;61.02
11912;BME280;6016;41.928;25.556;2022-09-03T06:59:10;98942.75;;;25.82;60.65
11912;BME280;6016;41.928;25.556;2022-09-03T07:01:42;98901.13;;;25.66;60.69
11912;BME280;6016;41.928;25.556;2022-09-03T07:04:13;98949.47;;;25.96;60.10
11912;BME280;6016;41.928;25.556;2022-09-03T07:06:44;98948.97;;;25.99;60.49
11912;BME280;6016;41.928;25.556;2022-09-03T07:09:15;98914.09;;;25.81;59.99
11912;BME280;6016;41.928;25.556;2022-09-03T07:11:43;98966.94;;;26.06;59.99
11912;BME280;6016;41.928;25.556;2022-09-03T07:14:15;98953.91;;;25.86;60.30
11912;BME280;6016;41.928;25.556;2022-09-03T07:16:42;98980.75;;;26.09;60.42
11912;BME280;6016;41.928;25.556;2022-09-03T07:19:10;98972.09;;;26.24;59.69
11912;BME280;6016;41.928;25.556;2022-09-03T07:21:38;98970.31;;;26.30;59.47
11912;BME280;6016;41.928;25.556;2022-09-03T07:24:07;98975.78;;;26.35;60.19
11912;BME280;6016;41.928;25.556;2022-09-03T07:26:37;98928.50;;;26.21;59.61
11912;BME280;6016;41.928;25.556;2022-09-03T07:29:09;98913.50;;;26.13;59.84
11912;BME280;6016;41.928;25.556;2022-09-03T07:31:38;98956.03;;;26.52;59.06
11912;BME280;6016;41.928;25.556;2022-09-03T07:34:07;98862.63;;;26.10;58.39
11912;BME280;6016;41.928;25.556;2022-09-03T07:36:36;98975.34;;;27.00;58.38
11912;BME280;6016;41.928;25.556;2022-09-03T07:39:12;98919.03;;;26.80;57.47
11912;BME280;6016;41.928;25.556;2022-09-03T07:41:41;98948.72;;;27.14;57.00
11912;BME280;6016;41.928;25.556;2022-09-03T07:44:11;98978.28;;;27.43;56.43
11912;BME280;6016;41.928;25.556;2022-09-03T07:46:44;98952.13;;;27.27;56.04
11912;BME280;6016;41.928;25.556;2022-09-03T07:49:12;98971.28;;;27.47;55.94
11912;BME280;6016;41.928;25.556;2022-09-03T07:51:39;98991.34;;;27.69;55.37
11912;BME280;6016;41.928;25.556;2022-09-03T07:54:08;98986.47;;;27.71;55.57
11912;BME280;6016;41.928;25.556;2022-09-03T07:56:36;98978.28;;;27.65;56.48
11912;BME280;6016;41.928;25.556;2022-09-03T07:59:04;98933.09;;;27.21;56.00
11912;BME280;6016;41.928;25.556;2022-09-03T08:01:33;98969.78;;;27.57;56.46
11912;BME280;6016;41.928;25.556;2022-09-03T08:04:00;98971.19;;;27.59;56.20
11912;BME280;6016;41.928;25.556;2022-09-03T08:06:31;98965.50;;;27.61;56.52
11912;BME280;6016;41.928;25.556;2022-09-03T08:09:00;98966.94;;;27.69;55.88
11912;BME280;6016;41.928;25.556;2022-09-03T08:11:28;98888.47;;;27.29;56.28
11912;BME280;6016;41.928;25.556;2022-09-03T08:13:57;98963.84;;;27.87;55.21
11912;BME280;6016;41.928;25.556;2022-09-03T08:16:28;98966.31;;;27.89;55.30
11912;BME280;6016;41.928;25.556;2022-09-03T08:18:55;98967.44;;;27.98;55.29
11912;BME280;6016;41.928;25.556;2022-09-03T08:21:23;98964.81;;;28.08;54.68
11912;BME280;6016;41.928;25.556;2022-09-03T08:23:52;98957.56;;;28.14;54.67
11912;BME280;6016;41.928;25.556;2022-09-03T08:26:27;98955.13;;;28.13;54.67
11912;BME280;6016;41.928;25.556;2022-09-03T08:28:54;98959.53;;;28.19;54.56
11912;BME280;6016;41.928;25.556;2022-09-03T08:31:22;98951.03;;;28.10;54.21
11912;BME280;6016;41.928;25.556;2022-09-03T08:33:55;98906.91;;;27.87;54.28
11912;BME280;6016;41.928;25.556;2022-09-03T08:36:24;98881.00;;;27.64;54.14
11912;BME280;6016;41.928;25.556;2022-09-03T08:38:52;98956.28;;;28.22;54.20
11912;BME280;6016;41.928;25.556;2022-09-03T08:41:32;98939.44;;;28.20;53.55
11912;BME280;6016;41.928;25.556;2022-09-03T08:44:19;98954.50;;;28.38;53.24
11912;BME280;6016;41.928;25.556;2022-09-03T08:46:51;98896.25;;;28.13;53.14
11912;BME280;6016;41.928;25.556;2022-09-03T08:49:24;98890.19;;;27.96;53.28
11912;BME280;6016;41.928;25.556;2022-09-03T08:51:54;98952.09;;;28.47;52.97
11912;BME280;6016;41.928;25.556;2022-09-03T08:54:29;98939.91;;;28.44;52.75
11912;BME280;6016;41.928;25.556;2022-09-03T08:56:56;98943.72;;;28.54;52.76
11912;BME280;6016;41.928;25.556;2022-09-03T08:59:26;98854.47;;;28.09;52.99
11912;BME280;6016;41.928;25.556;2022-09-03T09:01:56;98945.19;;;28.72;51.94
11912;BME280;6016;41.928;25.556;2022-09-03T09:04:29;98936.47;;;28.64;52.24
11912;BME280;6016;41.928;25.556;2022-09-03T09:07:05;98849.34;;;28.13;52.01
11912;BME280;6016;41.928;25.556;2022-09-03T09:09:43;98827.59;;;28.07;52.74
11912;BME280;6016;41.928;25.556;2022-09-03T09:12:20;98944.00;;;29.05;51.64
11912;BME280;6016;41.928;25.556;2022-09-03T09:15:06;98901.19;;;28.70;51.78
11912;BME280;6016;41.928;25.556;2022-09-03T09:17:49;98947.78;;;28.99;52.01
11912;BME280;6016;41.928;25.556;2022-09-03T09:20:30;98943.75;;;29.12;51.60
11912;BME280;6016;41.928;25.556;2022-09-03T09:23:02;98940.19;;;29.01;51.81
11912;BME280;6016;41.928;25.556;2022-09-03T09:25:31;98798.56;;;28.03;52.03
11912;BME280;6016;41.928;25.556;2022-09-03T09:28:12;98920.22;;;28.75;51.80
11912;BME280;6016;41.928;25.556;2022-09-03T09:30:44;98858.63;;;28.22;52.72
11912;BME280;6016;41.928;25.556;2022-09-03T09:33:12;98944.94;;;28.78;52.21
11912;BME280;6016;41.928;25.556;2022-09-03T09:35:41;98939.59;;;28.89;51.53
11912;BME280;6016;41.928;25.556;2022-09-03T09:38:09;98942.06;;;29.01;51.83
11912;BME280;6016;41.928;25.556;2022-09-03T09:40:37;98938.06;;;29.14;51.11
11912;BME280;6016;41.928;25.556;2022-09-03T09:43:11;98852.50;;;28.42;51.50
11912;BME280;6016;41.928;25.556;2022-09-03T09:45:41;98930.94;;;28.97;51.51
11912;BME280;6016;41.928;25.556;2022-09-03T09:48:16;98899.09;;;28.82;51.24
11912;BME280;6016;41.928;25.556;2022-09-03T09:50:45;98934.00;;;29.16;50.97
11912;BME280;6016;41.928;25.556;2022-09-03T09:53:12;98935.41;;;29.34;51.02
11912;BME280;6016;41.928;25.556;2022-09-03T09:55:50;98814.88;;;28.67;50.42
11912;BME280;6016;41.928;25.556;2022-09-03T09:58:19;98860.84;;;28.84;49.85
11912;BME280;6016;41.928;25.556;2022-09-03T10:00:59;98845.53;;;28.67;50.21
11912;BME280;6016;41.928;25.556;2022-09-03T10:03:39;98942.16;;;29.16;50.51
11912;BME280;6016;41.928;25.556;2022-09-03T10:06:15;98947.88;;;29.25;50.32
11912;BME280;6016;41.928;25.556;2022-09-03T10:09:09;98904.09;;;29.11;49.41
11912;BME280;6016;41.928;25.556;2022-09-03T10:11:40;98948.22;;;29.50;50.60
11912;BME280;6016;41.928;25.556;2022-09-03T10:14:20;98871.47;;;29.01;50.51
11912;BME280;6016;41.928;25.556;2022-09-03T10:16:55;98874.75;;;29.03;50.00
11912;BME280;6016;41.928;25.556;2022-09-03T10:19:35;98955.03;;;29.62;50.09
11912;BME280;6016;41.928;25.556;2022-09-03T10:22:11;98833.16;;;28.87;50.04
11912;BME280;6016;41.928;25.556;2022-09-03T10:24:48;98949.63;;;29.73;50.17
11912;BME280;6016;41.928;25.556;2022-09-03T10:27:27;98803.84;;;28.99;48.92
11912;BME280;6016;41.928;25.556;2022-09-03T10:29:57;98900.69;;;29.73;49.06
11912;BME280;6016;41.928;25.556;2022-09-03T10:32:32;98935.75;;;30.11;48.65
11912;BME280;6016;41.928;25.556;2022-09-03T10:35:07;98937.66;;;30.15;48.83
11912;BME280;6016;41.928;25.556;2022-09-03T10:37:45;98885.19;;;29.79;48.26
11912;BME280;6016;41.928;25.556;2022-09-03T10:40:18;98935.50;;;30.12;48.49
11912;BME280;6016;41.928;25.556;2022-09-03T10:43:02;98931.66;;;30.18;48.35
11912;BME280;6016;41.928;25.556;2022-09-03T10:45:39;98926.22;;;30.29;48.60
11912;BME280;6016;41.928;25.556;2022-09-03T10:48:30;98926.50;;;30.22;47.68
11912;BME280;6016;41.928;25.556;2022-09-03T10:51:05;98924.38;;;30.03;48.41
11912;BME280;6016;41.928;25.556;2022-09-03T10:53:54;98923.78;;;29.96;49.14
11912;BME280;6016;41.928;25.556;2022-09-03T10:56:31;98919.72;;;30.04;48.70
11912;BME280;6016;41.928;25.556;2022-09-03T10:59:15;98864.78;;;29.66;48.64
11912;BME280;6016;41.928;25.556;2022-09-03T11:01:55;98462.41;;;27.18;47.98
11912;BME280;6016;41.928;25.556;2022-09-03T11:04:27;98925.94;;;30.30;48.28
11912;BME280;6016;41.928;25.556;2022-09-03T11:07:02;98866.09;;;29.99;47.62
11912;BME280;6016;41.928;25.556;2022-09-03T11:09:37;98924.84;;;30.37;47.87
11912;BME280;6016;41.928;25.556;2022-09-03T11:12:11;98921.84;;;30.49;47.55
11912;BME280;6016;41.928;25.556;2022-09-03T11:14:44;98917.44;;;30.58;46.77
11912;BME280;6016;41.928;25.556;2022-09-03T11:17:20;98880.19;;;30.43;46.87
11912;BME280;6016;41.928;25.556;2022-09-03T11:19:58;98923.41;;;30.76;46.61
11912;BME280;6016;41.928;25.556;2022-09-03T11:22:33;98886.16;;;30.45;46.79
11912;BME280;6016;41.928;25.556;2022-09-03T11:25:09;98934.63;;;30.53;46.48
11912;BME280;6016;41.928;25.556;2022-09-03T11:27:50;98935.75;;;30.31;47.11
11912;BME280;6016;41.928;25.556;2022-09-03T11:30:28;98547.63;;;27.54;48.07
11912;BME280;6016;41.928;25.556;2022-09-03T11:33:05;98929.22;;;29.96;47.87
11912;BME280;6016;41.928;25.556;2022-09-03T11:35:38;98925.97;;;29.94;48.66
11912;BME280;6016;41.928;25.556;2022-09-03T11:38:20;98919.44;;;29.85;48.79
11912;BME280;6016;41.928;25.556;2022-09-03T11:41:02;98882.44;;;29.89;48.14
11912;BME280;6016;41.928;25.556;2022-09-03T11:43:31;98830.25;;;29.71;47.73
11912;BME280;6016;41.928;25.556;2022-09-03T11:46:05;98804.69;;;29.62;47.46
11912;BME280;6016;41.928;25.556;2022-09-03T11:48:39;98907.19;;;30.18;47.91
11912;BME280;6016;41.928;25.556;2022-09-03T11:51:20;98912.38;;;30.15;48.07
11912;BME280;6016;41.928;25.556;2022-09-03T11:53:56;98910.41;;;30.31;47.69
11912;BME280;6016;41.928;25.556;2022-09-03T11:56:25;98848.72;;;30.06;46.82
11912;BME280;6016;41.928;25.556;2022-09-03T11:59:16;98877.81;;;30.05;48.04
11912;BME280;6016;41.928;25.556;2022-09-03T12:01:48;98879.75;;;30.04;47.44
11912;BME280;6016;41.928;25.556;2022-09-03T12:04:21;98819.34;;;29.87;47.39
11912;BME280;6016;41.928;25.556;2022-09-03T12:07:08;98898.13;;;30.54;46.44
11912;BME280;6016;41.928;25.556;2022-09-03T12:09:58;98914.94;;;30.77;45.23
11912;BME280;6016;41.928;25.556;2022-09-03T12:12:42;98898.28;;;30.84;45.23
11912;BME280;6016;41.928;25.556;2022-09-03T12:15:19;98902.59;;;30.95;44.95
11912;BME280;6016;41.928;25.556;2022-09-03T12:17:51;98890.91;;;30.95;44.78
11912;BME280;6016;41.928;25.556;2022-09-03T12:20:33;98902.03;;;31.04;44.97
11912;BME280;6016;41.928;25.556;2022-09-03T12:22:59;98809.44;;;30.43;43.79
11912;BME280;6016;41.928;25.556;2022-09-03T12:25:27;98837.41;;;30.64;43.17
11912;BME280;6016;41.928;25.556;2022-09-03T12:27:58;98901.97;;;31.09;43.92
11912;BME280;6016;41.928;25.556;2022-09-03T12:30:28;98901.94;;;31.24;44.10
11912;BME280;6016;41.928;25.556;2022-09-03T12:33:03;98903.00;;;31.28;44.17
11912;BME280;6016;41.928;25.556;2022-09-03T12:35:30;98893.78;;;31.14;44.15
11912;BME280;6016;41.928;25.556;2022-09-03T12:37:57;98860.63;;;30.96;44.49
11912;BME280;6016;41.928;25.556;2022-09-03T12:40:27;98892.63;;;31.30;43.95
11912;BME280;6016;41.928;25.556;2022-09-03T12:42:59;98888.72;;;31.42;43.45
11912;BME280;6016;41.928;25.556;2022-09-03T12:45:42;98847.16;;;31.21;43.11
11912;BME280;6016;41.928;25.556;2022-09-03T12:48:14;98882.44;;;31.47;43.47
11912;BME280;6016;41.928;25.556;2022-09-03T12:50:42;98886.25;;;31.46;43.03
11912;BME280;6016;41.928;25.556;2022-09-03T12:53:11;98880.22;;;31.49;43.18
11912;BME280;6016;41.928;25.556;2022-09-03T12:55:42;98757.34;;;30.55;43.52
11912;BME280;6016;41.928;25.556;2022-09-03T12:58:16;98850.59;;;30.92;43.33
11912;BME280;6016;41.928;25.556;2022-09-03T13:00:46;98896.00;;;31.12;42.99
11912;BME280;6016;41.928;25.556;2022-09-03T13:03:18;98894.28;;;31.21;43.30
11912;BME280;6016;41.928;25.556;2022-09-03T13:05:49;98903.00;;;31.28;42.90
11912;BME280;6016;41.928;25.556;2022-09-03T13:08:21;98888.66;;;31.02;41.39
11912;BME280;6016;41.928;25.556;2022-09-03T13:10:52;98848.81;;;30.66;42.24
11912;BME280;6016;41.928;25.556;2022-09-03T13:13:24;98889.31;;;30.83;43.36
11912;BME280;6016;41.928;25.556;2022-09-03T13:16:08;98844.78;;;30.53;43.73
11912;BME280;6016;41.928;25.556;2022-09-03T13:18:42;98748.34;;;30.04;43.55
11912;BME280;6016;41.928;25.556;2022-09-03T13:21:17;98845.53;;;30.69;43.99
11912;BME280;6016;41.928;25.556;2022-09-03T13:24:03;98881.56;;;31.06;43.50
11912;BME280;6016;41.928;25.556;2022-09-03T13:26:42;98721.97;;;29.94;44.03
11912;BME280;6016;41.928;25.556;2022-09-03T13:29:32;98892.44;;;31.11;43.72